KJEFKMHL

Guest
Details From KJEF - Jefferson City Mem
To KMHL - MARSHALL MEM MUNI
Flight Number -
Tags generated
Created
Modified
Stats Distance 58 nm / 107 km
Max Altitude 4,900 ft / 1,494 m
Waypoints 3
Social Downloads 0
Likes 0
Share VATSIM

Download

Looking for another format? Having issues loading an existing format? Contact us
Advertisement - Login to hide

Notes

Basic altitude profile: - Ascent Rate: 3500ft/min - Ascent Speed: 100kts - Cruise Altitude: 35000ft - Cruise Speed: 420kts - Descent Rate: 1500ft/min - Descent Speed: 250kts Options: - Use NATs: yes - Use PACOTS: yes - Use low airways: yes - Use high airways: no

Route

KJEF GIBSN KMHL

ID Type Via Altitude Latitude Longitude Leg Dist Tot Dist Heading (true) Name
O KJEF APT - 0 ft / 0 m 38.59112˚ -92.15658˚ - 0 nm - Jefferson City Mem
GIBSN FIX - 4,900 ft / 1,494 m 38.71661˚ -92.40643˚ 13 nm 13 nm 303° / 303° -
O KMHL APT - 0 ft / 0 m 39.09582˚ -93.20357˚ 43 nm 57 nm 302° / 301° MARSHALL MEM MUNI

Altitude Profile

Advertisement - Login to hide

KJEF

Details ICAO KJEF (JEF)
Name Jefferson City Mem
Region United States
Timezone America/Chicago (UTC-6.0)
Stats Elevation 549 ft / 167 m (AMSL)
Location 38.591123° -92.156582°
Runways 2
Magnetic Variation 0.073° W

METAR

KJEF 131753Z 27017G24KT 10SM CLR 12/M03 A2966 RMK AO2 SLP035 6//// T01221033 10122 20011 58013

Decode

TAF

Not found

Departure Runways

ID Width Length Bearing (true) Bearing (mag) Surface Threshold Offset Overrun Length
09 75 ft / 23 m 3,394 ft / 1,034 m 91.09° 91.16° Concrete 0 ft / 0 m 0 ft / 0 m
12 100 ft / 30 m 5,995 ft / 1,827 m 122.63° 122.70° Asphalt 0 ft / 0 m 0 ft / 0 m
27 75 ft / 23 m 3,394 ft / 1,034 m 271.10° 271.17° Concrete 0 ft / 0 m 0 ft / 0 m
30 100 ft / 30 m 5,995 ft / 1,827 m 302.64° 302.71° Asphalt 0 ft / 0 m 0 ft / 0 m

KMHL

Details ICAO KMHL
Name MARSHALL MEM MUNI
Region United States
Timezone America/Chicago (UTC-6.0)
Stats Elevation 779 ft / 237 m (AMSL)
Location 39.095816° -93.203571°
Runways 2
Magnetic Variation 0.662° E

METAR

KMHL 131815Z AUTO 29022G32KT 10SM CLR 16/00 A2967 RMK AO2

Decode

TAF

Not found

Destination Runways

ID Width Length Bearing (true) Bearing (mag) Surface Threshold Offset Overrun Length
09 150 ft / 46 m 3,525 ft / 1,075 m 95.04° 94.38° Dirt 0 ft / 0 m 0 ft / 0 m
18 75 ft / 23 m 4,710 ft / 1,436 m 181.00° 180.34° Asphalt 200 ft / 61 m 0 ft / 0 m
27 150 ft / 46 m 3,525 ft / 1,075 m 275.05° 274.39° Dirt 0 ft / 0 m 0 ft / 0 m
36 75 ft / 23 m 4,710 ft / 1,436 m 1.00° 0.34° Asphalt 0 ft / 0 m 0 ft / 0 m